Time;durP1;ratioP1;P1;durP2;ratioP2;P2;SDS_P1;SDS_P2;PMS_P1;PMS_P2;Temp;Humidity;BMP_temperature;BMP_pressure;BME280_temperature;BME280_humidity;BME280_pressure;Samples;Min_cycle;Max_cycle;Signal;HPM_P1;HPM_P2
2022/08/19 00:01:39;;;;;;;25.33;19.67;;;21.60;99.90;;;;;;5019396;28;20030;-77
2022/08/19 00:04:07;;;;;;;22.83;19.17;;;21.50;99.90;;;;;;5018150;28;20037;-77
2022/08/19 00:06:34;;;;;;;21.42;18.50;;;21.40;99.90;;;;;;5003107;28;20026;-77
2022/08/19 00:09:00;;;;;;;22.80;19.05;;;21.40;99.90;;;;;;5004136;28;20022;-77
2022/08/19 00:11:27;;;;;;;22.33;18.27;;;21.40;99.90;;;;;;5003020;28;20095;-77
2022/08/19 00:13:54;;;;;;;23.95;20.17;;;21.40;99.90;;;;;;5002671;28;20030;-77
2022/08/19 00:16:20;;;;;;;22.85;18.05;;;21.40;99.90;;;;;;5002934;28;20225;-77
2022/08/19 00:18:47;;;;;;;22.00;18.92;;;21.40;99.90;;;;;;5002601;28;20261;-77
2022/08/19 00:21:13;;;;;;;;;;;21.50;99.90;;;;;;5003080;28;20069;-77
2022/08/19 00:23:38;;;;;;;26.77;19.23;;;21.50;99.90;;;;;;5018520;28;19928;-77
2022/08/19 00:26:05;;;;;;;24.13;18.83;;;21.50;99.90;;;;;;5019109;28;20022;-77
2022/08/19 00:28:32;;;;;;;22.90;19.25;;;21.50;99.90;;;;;;5018921;28;20048;-77
2022/08/19 00:30:59;;;;;;;22.05;18.48;;;21.40;99.90;;;;;;5018602;28;20072;-77
2022/08/19 00:33:25;;;;;;;22.52;19.15;;;21.40;99.90;;;;;;5018740;28;20026;-77
2022/08/19 00:35:50;;;;;;;23.85;19.10;;;21.40;99.90;;;;;;5018651;28;20274;-77
2022/08/19 00:38:16;;;;;;;23.83;19.27;;;21.30;99.90;;;;;;4985302;28;20026;-77
2022/08/19 00:40:46;;;;;;;24.33;19.40;;;21.30;99.90;;;;;;5002792;28;20100;-77
2022/08/19 00:43:12;;;;;;;24.63;19.90;;;21.30;99.90;;;;;;5002300;28;20451;-77
2022/08/19 00:45:41;;;;;;;23.95;19.48;;;21.30;99.90;;;;;;4985479;28;20017;-77
2022/08/19 00:48:07;;;;;;;26.25;20.63;;;21.30;99.90;;;;;;5002679;28;20041;-77
2022/08/19 00:50:33;;;;;;;29.20;19.77;;;21.20;99.90;;;;;;5002213;28;20100;-77
2022/08/19 00:52:59;;;;;;;23.33;19.03;;;21.20;99.90;;;;;;5002028;28;20034;-77
2022/08/19 00:55:28;;;;;;;24.02;20.67;;;21.20;99.90;;;;;;5002298;28;20261;-76
2022/08/19 00:58:06;;;;;;;22.92;18.70;;;21.20;99.90;;;;;;4994490;28;20214;-76
2022/08/19 01:00:36;;;;;;;23.83;19.20;;;21.20;99.90;;;;;;5017997;28;20038;-76
2022/08/19 01:03:03;;;;;;;26.58;21.75;;;21.20;99.90;;;;;;5001655;28;20034;-76
2022/08/19 01:05:29;;;;;;;25.52;21.15;;;21.20;99.90;;;;;;5002129;28;20018;-76
2022/08/19 01:07:59;;;;;;;24.87;20.77;;;21.20;99.90;;;;;;5018440;28;20022;-77
2022/08/19 01:10:27;;;;;;;25.55;20.90;;;21.20;99.90;;;;;;5018217;28;20029;-76
2022/08/19 01:12:54;;;;;;;25.00;20.02;;;21.20;99.90;;;;;;5017563;28;20165;-76
2022/08/19 01:15:24;;;;;;;28.65;22.30;;;21.20;99.90;;;;;;5018075;28;20049;-77
2022/08/19 01:17:50;;;;;;;23.48;19.65;;;21.20;99.90;;;;;;4985756;28;20076;-78
2022/08/19 01:20:19;;;;;;;26.98;21.75;;;21.30;99.90;;;;;;4985690;28;20221;-77
2022/08/19 01:22:55;;;;;;;25.58;19.88;;;21.20;99.90;;;;;;5001489;28;20034;-77
2022/08/19 01:25:26;;;;;;;24.08;20.30;;;21.20;99.90;;;;;;5001774;28;20049;-77
2022/08/19 01:27:52;;;;;;;25.88;20.30;;;21.20;99.90;;;;;;5001782;28;20101;-77
2022/08/19 01:30:22;;;;;;;23.93;20.43;;;21.20;99.90;;;;;;5001155;28;20037;-77
2022/08/19 01:32:49;;;;;;;23.88;19.65;;;21.20;99.90;;;;;;5016931;28;20018;-77
2022/08/19 01:35:17;;;;;;;25.30;20.98;;;21.20;99.90;;;;;;5017842;28;20347;-77
2022/08/19 01:38:07;;;;;;;24.98;20.98;;;21.20;99.90;;;;;;5016515;28;20038;-77
2022/08/19 01:40:34;;;;;;;26.25;21.00;;;21.20;99.90;;;;;;5001915;28;20244;-75
2022/08/19 01:43:00;;;;;;;24.40;20.65;;;21.20;99.90;;;;;;5001247;28;20029;-77
2022/08/19 01:45:27;;;;;;;24.58;20.58;;;21.20;99.90;;;;;;5000603;28;20027;-76
2022/08/19 01:47:53;;;;;;;28.23;22.00;;;21.20;99.90;;;;;;5001521;28;20049;-77
2022/08/19 01:50:19;;;;;;;25.90;21.35;;;21.30;99.90;;;;;;5001550;28;20022;-77
2022/08/19 01:52:46;;;;;;;24.80;21.45;;;21.20;99.90;;;;;;4985007;28;20250;-77
2022/08/19 01:55:14;;;;;;;;;;;21.20;99.90;;;;;;5001979;28;20027;-77
2022/08/19 01:57:41;;;;;;;29.35;21.83;;;21.10;99.90;;;;;;5017633;28;19905;-77
2022/08/19 02:00:10;;;;;;;27.08;22.52;;;21.10;99.90;;;;;;5001222;28;20022;-77
2022/08/19 02:02:36;;;;;;;28.00;22.30;;;21.10;99.90;;;;;;4985106;28;20227;-76
2022/08/19 02:05:02;;;;;;;29.37;23.53;;;21.10;99.90;;;;;;5001467;28;20029;-77
2022/08/19 02:07:29;;;;;;;29.55;24.23;;;21.10;99.90;;;;;;5001431;28;20026;-77
2022/08/19 02:09:55;;;;;;;30.08;24.05;;;21.10;99.90;;;;;;5017678;28;20022;-77
2022/08/19 02:12:21;;;;;;;28.30;23.52;;;21.10;99.90;;;;;;5016738;28;20014;-76
2022/08/19 02:14:47;;;;;;;31.57;23.40;;;21.10;99.90;;;;;;5000963;28;20030;-76
2022/08/19 02:17:13;;;;;;;27.67;23.83;;;21.10;99.90;;;;;;5001564;28;20276;-77
2022/08/19 02:19:39;;;;;;;36.25;23.00;;;21.20;99.90;;;;;;5001456;28;20329;-77
2022/08/19 02:22:05;;;;;;;28.83;22.63;;;21.20;99.90;;;;;;5001348;28;20033;-77
2022/08/19 02:24:31;;;;;;;32.05;25.05;;;21.20;99.90;;;;;;5001150;28;20237;-77
2022/08/19 02:26:58;;;;;;;30.93;25.07;;;21.20;99.90;;;;;;5001233;28;20077;-77
2022/08/19 02:29:24;;;;;;;32.08;25.02;;;21.20;99.90;;;;;;5002032;28;20022;-76
2022/08/19 02:31:50;;;;;;;32.07;24.23;;;21.20;99.90;;;;;;5000500;28;20073;-76
2022/08/19 02:34:16;;;;;;;31.40;24.80;;;21.10;99.90;;;;;;5001041;28;20030;-77
2022/08/19 02:36:42;;;;;;;29.23;23.25;;;21.10;99.90;;;;;;5001055;28;20080;-76
2022/08/19 02:39:08;;;;;;;30.17;25.00;;;21.10;99.90;;;;;;5002076;28;20042;-76
2022/08/19 02:41:34;;;;;;;31.85;25.48;;;21.10;99.90;;;;;;5000882;28;20022;-76
2022/08/19 02:44:01;;;;;;;33.10;24.43;;;21.10;99.90;;;;;;5004030;28;20229;-76
2022/08/19 02:46:31;;;;;;;;;;;21.10;99.90;;;;;;5004559;28;20019;-76
2022/08/19 02:49:00;;;;;;;33.42;24.88;;;21.10;99.90;;;;;;5020746;28;19920;-76
2022/08/19 02:51:38;;;;;;;32.20;24.25;;;21.10;99.90;;;;;;5004325;28;20046;-76
2022/08/19 02:54:05;;;;;;;33.22;24.90;;;21.10;99.90;;;;;;5004105;28;20317;-76
2022/08/19 02:56:30;;;;;;;33.08;26.60;;;21.10;99.90;;;;;;5004333;28;20053;-76
2022/08/19 02:58:56;;;;;;;33.37;26.43;;;21.10;99.90;;;;;;5004168;28;20062;-76
2022/08/19 03:01:28;;;;;;;38.17;26.35;;;21.10;99.90;;;;;;5003872;28;20026;-76
2022/08/19 03:03:55;;;;;;;30.10;23.70;;;21.10;99.90;;;;;;5004127;28;20038;-77
2022/08/19 03:06:21;;;;;;;31.92;25.25;;;21.10;99.90;;;;;;5004161;28;20244;-76
2022/08/19 03:08:49;;;;;;;36.35;27.25;;;21.10;99.90;;;;;;5004048;28;20045;-76
2022/08/19 03:11:20;;;;;;;35.25;26.35;;;21.10;99.90;;;;;;5003804;28;20097;-76
2022/08/19 03:13:48;;;;;;;32.95;25.17;;;21.00;99.90;;;;;;5003626;28;20037;-76
2022/08/19 03:16:14;;;;;;;34.10;25.70;;;21.10;99.90;;;;;;5003723;28;20076;-76
2022/08/19 03:18:40;;;;;;;37.60;26.92;;;21.10;99.90;;;;;;5003387;28;20344;-76
2022/08/19 03:21:06;;;;;;;35.00;27.23;;;21.10;99.90;;;;;;5019770;28;20034;-76
2022/08/19 03:23:32;;;;;;;34.93;26.73;;;21.10;99.90;;;;;;5003542;28;20026;-77
2022/08/19 03:25:57;;;;;;;34.50;27.47;;;21.10;99.90;;;;;;5004646;28;20261;-76
2022/08/19 03:28:23;;;;;;;35.60;26.33;;;21.10;99.90;;;;;;5003709;28;20034;-76
2022/08/19 03:31:05;;;;;;;32.43;25.23;;;21.20;99.90;;;;;;5002824;28;20072;-76
2022/08/19 03:33:31;;;;;;;35.38;26.00;;;21.20;99.90;;;;;;5003392;28;20026;-76
2022/08/19 03:36:05;;;;;;;35.33;26.48;;;21.20;99.90;;;;;;5003572;28;20034;-76
2022/08/19 03:38:32;;;;;;;34.83;25.63;;;21.20;99.90;;;;;;5002753;28;20256;-76
2022/08/19 03:40:57;;;;;;;37.25;26.90;;;21.20;99.90;;;;;;5003429;28;20018;-76
2022/08/19 03:43:24;;;;;;;34.87;27.43;;;21.20;99.90;;;;;;5019425;28;20064;-77
2022/08/19 03:45:59;;;;;;;38.13;27.73;;;21.10;99.90;;;;;;5004219;28;20098;-76
2022/08/19 03:48:25;;;;;;;34.58;26.10;;;21.20;99.90;;;;;;5003375;28;20038;-76
2022/08/19 03:50:51;;;;;;;36.13;26.73;;;21.20;99.90;;;;;;5002188;28;20026;-76
2022/08/19 03:53:16;;;;;;;35.13;27.97;;;21.10;99.90;;;;;;5003684;28;20029;-76
2022/08/19 03:55:42;;;;;;;37.53;28.17;;;21.10;99.90;;;;;;5004141;28;20364;-76
2022/08/19 03:58:08;;;;;;;36.33;27.27;;;21.10;99.90;;;;;;5003035;28;20046;-76
2022/08/19 04:00:34;;;;;;;41.03;28.03;;;21.00;99.90;;;;;;5019197;28;20045;-77
2022/08/19 04:03:00;;;;;;;34.90;26.50;;;21.00;99.90;;;;;;5002719;28;20085;-76
2022/08/19 04:05:28;;;;;;;37.45;27.83;;;21.00;99.90;;;;;;5002094;28;20018;-76
2022/08/19 04:07:58;;;;;;;34.40;26.40;;;21.00;99.90;;;;;;5002811;28;20101;-76
2022/08/19 04:10:24;;;;;;;37.85;26.88;;;21.00;99.90;;;;;;4987260;28;20018;-76
2022/08/19 04:12:50;;;;;;;38.08;28.30;;;21.00;99.90;;;;;;5002496;28;20041;-76
2022/08/19 04:15:16;;;;;;;42.67;29.17;;;21.00;99.90;;;;;;5002823;28;20026;-76
2022/08/19 04:17:42;;;;;;;38.20;29.73;;;21.00;99.90;;;;;;5002626;28;20057;-76
2022/08/19 04:20:08;;;;;;;38.20;30.00;;;21.00;99.90;;;;;;5003745;28;20041;-75
2022/08/19 04:22:33;;;;;;;40.35;28.63;;;20.90;99.90;;;;;;5002307;28;20034;-76
2022/08/19 04:24:59;;;;;;;42.53;29.47;;;20.90;99.90;;;;;;5002343;28;20049;-76
2022/08/19 04:27:26;;;;;;;38.13;28.10;;;20.90;99.90;;;;;;4986149;28;20026;-76
2022/08/19 04:29:54;;;;;;;39.05;28.52;;;20.90;99.90;;;;;;5003415;28;20026;-76
2022/08/19 04:32:19;;;;;;;37.05;27.90;;;20.90;99.90;;;;;;5002230;28;20026;-75
2022/08/19 04:34:45;;;;;;;42.83;30.07;;;20.90;99.90;;;;;;4997600;28;20049;-76
2022/08/19 04:37:12;;;;;;;39.37;28.30;;;20.80;99.90;;;;;;4999827;28;20225;-76
2022/08/19 04:42:40;;;;;;;40.60;27.73;;;20.80;99.90;;;;;;5002236;28;20128;-76
2022/08/19 04:45:09;;;;;;;41.13;28.38;;;20.80;99.90;;;;;;5002076;28;20019;-76
2022/08/19 04:47:42;;;;;;;34.33;25.90;;;20.80;99.90;;;;;;4999506;28;20310;-76
2022/08/19 04:50:11;;;;;;;42.97;30.75;;;20.80;99.90;;;;;;4986752;28;20045;-77
2022/08/19 04:52:42;;;;;;;39.78;29.02;;;20.80;99.90;;;;;;4975178;28;20217;-77
2022/08/19 04:55:10;;;;;;;37.05;28.67;;;20.80;99.90;;;;;;4990915;28;20329;-76
2022/08/19 04:57:39;;;;;;;43.22;28.73;;;20.80;99.90;;;;;;4983942;28;20026;-77
2022/08/19 05:00:06;;;;;;;38.92;28.27;;;20.80;99.90;;;;;;4997208;28;20025;-76
2022/08/19 05:02:32;;;;;;;39.40;29.20;;;20.80;99.90;;;;;;5001396;28;20030;-77
2022/08/19 05:05:00;;;;;;;37.67;27.90;;;20.80;99.90;;;;;;4997765;28;20100;-77
2022/08/19 05:07:26;;;;;;;42.83;28.92;;;20.80;99.90;;;;;;4981831;28;20102;-77
2022/08/19 05:09:52;;;;;;;38.97;27.55;;;20.80;99.90;;;;;;4998240;28;20034;-77
2022/08/19 05:12:18;;;;;;;42.25;28.60;;;20.80;99.90;;;;;;4998341;28;20116;-77
2022/08/19 05:14:47;;;;;;;39.97;28.13;;;20.80;99.90;;;;;;4989887;28;20089;-77
2022/08/19 05:17:13;;;;;;;39.60;27.95;;;20.80;99.90;;;;;;5008915;28;20068;-77
2022/08/19 05:22:34;;;;;;;37.90;27.50;;;20.80;99.90;;;;;;5001706;28;20101;-76
2022/08/19 05:25:11;;;;;;;37.90;28.85;;;20.80;99.90;;;;;;5002846;28;20030;-76
2022/08/19 05:27:37;;;;;;;40.45;27.60;;;20.80;99.90;;;;;;5001038;28;20340;-78
2022/08/19 05:30:04;;;;;;;38.70;28.60;;;20.70;99.90;;;;;;4984653;28;20329;-72
2022/08/19 05:32:30;;;;;;;40.83;28.70;;;20.80;99.90;;;;;;4999748;28;20030;-73
2022/08/19 05:34:56;;;;;;;39.07;27.43;;;20.80;99.90;;;;;;4996101;28;20056;-74
2022/08/19 05:37:22;;;;;;;37.55;27.42;;;20.90;99.90;;;;;;4984539;28;20061;-71
2022/08/19 05:39:48;;;;;;;37.60;26.87;;;20.90;99.90;;;;;;5001658;28;20060;-71
2022/08/19 05:42:14;;;;;;;37.03;26.58;;;20.90;99.90;;;;;;5002298;28;20061;-72
2022/08/19 05:44:45;;;;;;;37.70;28.10;;;20.90;99.90;;;;;;5001221;28;20030;-70
2022/08/19 05:47:12;;;;;;;39.40;28.08;;;20.90;99.90;;;;;;5001703;28;20069;-71
2022/08/19 05:49:37;;;;;;;38.70;27.15;;;20.90;99.90;;;;;;5002344;28;20019;-70
2022/08/19 05:52:11;;;;;;;40.40;26.90;;;20.90;99.90;;;;;;5001777;28;20141;-71
2022/08/19 05:54:40;;;;;;;37.63;27.55;;;21.00;99.90;;;;;;5000891;28;20022;-68
2022/08/19 05:57:05;;;;;;;36.95;26.95;;;21.10;99.90;;;;;;5002358;28;20321;-67
2022/08/19 05:59:31;;;;;;;38.43;27.20;;;21.10;99.90;;;;;;5002399;28;20053;-67
2022/08/19 06:01:57;;;;;;;36.80;26.60;;;21.10;99.90;;;;;;5001240;28;20030;-67
2022/08/19 06:04:23;;;;;;;39.73;27.70;;;21.10;99.90;;;;;;5002140;28;20041;-67
2022/08/19 06:06:51;;;;;;;34.20;26.07;;;21.10;99.90;;;;;;5002369;28;20034;-67
2022/08/19 06:09:17;;;;;;;37.63;26.67;;;21.20;99.90;;;;;;5002188;28;20060;-68
2022/08/19 06:11:48;;;;;;;40.53;29.43;;;21.20;99.90;;;;;;5001755;28;20030;-68
2022/08/19 06:14:17;;;;;;;37.47;27.58;;;21.20;99.90;;;;;;5002393;28;20101;-68
2022/08/19 06:16:44;;;;;;;36.28;26.27;;;21.30;99.90;;;;;;5002896;28;20038;-68
2022/08/19 06:19:12;;;;;;;38.13;27.65;;;21.30;99.90;;;;;;5006109;28;20026;-68
2022/08/19 06:21:40;;;;;;;41.15;28.35;;;21.30;99.90;;;;;;5005755;28;20325;-68
2022/08/19 06:24:07;;;;;;;37.35;27.00;;;21.40;99.90;;;;;;5005349;28;20325;-67
2022/08/19 06:26:35;;;;;;;38.45;25.83;;;21.40;99.90;;;;;;5020895;28;20030;-68
2022/08/19 06:29:02;;;;;;;36.65;27.05;;;21.40;99.90;;;;;;5006041;28;20026;-68
2022/08/19 06:31:28;;;;;;;38.67;28.63;;;21.30;99.90;;;;;;5020954;28;20054;-68
2022/08/19 06:33:54;;;;;;;37.90;27.42;;;21.40;99.90;;;;;;5005461;28;20022;-68
2022/08/19 06:36:27;;;;;;;32.77;24.83;;;21.40;99.90;;;;;;5005841;28;20060;-68
2022/08/19 06:38:54;;;;;;;35.15;26.90;;;21.40;99.90;;;;;;5004801;28;20038;-67
2022/08/19 06:41:19;;;;;;;;;;;21.40;99.90;;;;;;5005945;28;20018;-68
2022/08/19 06:43:46;;;;;;;33.22;25.17;;;21.50;99.90;;;;;;5004158;28;19944;-73
2022/08/19 06:46:13;;;;;;;;;;;21.50;99.90;;;;;;5004808;28;20090;-73
2022/08/19 06:48:39;;;;;;;31.60;24.15;;;21.50;99.90;;;;;;5020606;28;19910;-73
2022/08/19 06:51:05;;;;;;;36.93;25.10;;;21.60;99.90;;;;;;5005316;28;20206;-73
2022/08/19 06:53:32;;;;;;;32.55;24.13;;;21.60;99.90;;;;;;5003486;28;20089;-74
2022/08/19 06:56:01;;;;;;;33.35;24.33;;;21.60;99.90;;;;;;5003960;28;20027;-73
2022/08/19 06:58:33;;;;;;;31.33;24.17;;;21.60;99.90;;;;;;5005232;28;20403;-73
2022/08/19 07:01:02;;;;;;;35.22;27.15;;;21.60;99.90;;;;;;5005158;28;20026;-73
2022/08/19 07:03:32;;;;;;;34.58;26.52;;;21.70;99.90;;;;;;5020155;28;20030;-73
2022/08/19 07:06:07;;;;;;;34.58;26.00;;;21.70;99.90;;;;;;5020223;28;20026;-74
2022/08/19 07:08:33;;;;;;;38.67;26.67;;;21.70;99.90;;;;;;5020321;28;20415;-73
2022/08/19 07:10:59;;;;;;;35.30;27.08;;;21.80;99.90;;;;;;5004884;28;20026;-73
2022/08/19 07:13:25;;;;;;;37.95;27.02;;;21.80;99.90;;;;;;5004874;28;20033;-73
2022/08/19 07:15:51;;;;;;;37.93;28.17;;;21.90;99.90;;;;;;5005080;28;20034;-73
2022/08/19 07:18:19;;;;;;;34.70;25.67;;;21.90;99.90;;;;;;5020227;28;20027;-72
2022/08/19 07:20:45;;;;;;;31.63;24.35;;;21.90;99.90;;;;;;5020109;28;20022;-74
2022/08/19 07:23:11;;;;;;;38.23;25.90;;;21.90;99.90;;;;;;5001375;28;20018;-71
2022/08/19 07:25:37;;;;;;;32.97;24.20;;;22.00;99.90;;;;;;4995789;28;20070;-76
2022/08/19 07:28:03;;;;;;;34.75;24.83;;;22.10;99.90;;;;;;4987012;28;20057;-71
2022/08/19 07:30:30;;;;;;;29.83;22.45;;;22.10;99.90;;;;;;5002648;28;20030;-70
2022/08/19 07:32:56;;;;;;;33.13;23.88;;;22.20;99.90;;;;;;5006218;28;20053;-76
2022/08/19 07:35:23;;;;;;;35.15;24.60;;;22.20;99.90;;;;;;5005041;28;20038;-72
2022/08/19 07:37:49;;;;;;;35.35;25.13;;;22.20;99.90;;;;;;5004074;28;20093;-73
2022/08/19 07:40:14;;;;;;;30.77;23.63;;;22.20;99.90;;;;;;5006094;28;20022;-73
2022/08/19 07:42:41;;;;;;;32.37;23.80;;;22.20;99.90;;;;;;5004558;28;20046;-72
2022/08/19 07:45:07;;;;;;;31.60;23.83;;;22.30;99.90;;;;;;5004084;28;20460;-72
2022/08/19 07:47:33;;;;;;;;;;;22.20;99.90;;;;;;5003675;28;20041;-74
2022/08/19 07:49:59;;;;;;;30.10;22.38;;;22.20;99.90;;;;;;5003755;28;20221;-74
2022/08/19 07:52:24;;;;;;;33.67;24.27;;;22.20;99.90;;;;;;5003636;28;20329;-72
2022/08/19 07:54:50;;;;;;;34.23;24.40;;;22.20;99.90;;;;;;5007931;28;20216;-73
2022/08/19 07:57:16;;;;;;;32.92;23.63;;;22.20;99.90;;;;;;5024020;28;20018;-74
2022/08/19 07:59:42;;;;;;;31.63;23.48;;;22.20;99.90;;;;;;5039431;28;20030;-73
2022/08/19 08:02:08;;;;;;;31.63;23.58;;;22.20;99.90;;;;;;5010710;28;20061;-75
2022/08/19 08:10:05;;;;;;;31.90;24.40;;;22.20;99.90;;;;;;4986597;28;20372;-79
2022/08/19 08:12:40;;;;;;;35.40;25.17;;;22.10;99.90;;;;;;4984381;28;20106;-77
2022/08/19 08:15:10;;;;;;;34.25;23.23;;;22.10;99.90;;;;;;4968851;28;20030;-80
2022/08/19 08:17:36;;;;;;;31.98;24.30;;;22.10;99.90;;;;;;4984571;28;20038;-76
2022/08/19 08:20:06;;;;;;;33.33;22.77;;;22.10;99.90;;;;;;5000100;28;20222;-76
2022/08/19 08:25:20;;;;;;;33.47;22.73;;;22.10;99.90;;;;;;4999063;28;20105;-77
2022/08/19 08:27:46;;;;;;;30.65;23.00;;;22.10;99.90;;;;;;5039468;28;20022;-77
2022/08/19 08:30:21;;;;;;;32.77;22.90;;;22.10;99.90;;;;;;5039923;28;20056;-76
2022/08/19 08:32:47;;;;;;;31.70;21.90;;;22.10;99.90;;;;;;5033000;28;20045;-74
2022/08/19 08:35:16;;;;;;;27.48;20.58;;;22.20;99.90;;;;;;5041595;28;20348;-74
2022/08/19 08:37:43;;;;;;;31.27;24.23;;;22.20;99.90;;;;;;5058846;28;20096;-73
2022/08/19 08:40:43;;;;;;;28.52;21.92;;;22.30;99.90;;;;;;5058063;28;20119;-74
2022/08/19 08:43:27;;;;;;;27.52;21.23;;;22.40;99.90;;;;;;5039469;28;20041;-74
2022/08/19 08:46:03;;;;;;;26.55;20.27;;;22.40;99.90;;;;;;5058090;28;20025;-74
2022/08/19 08:48:55;;;;;;;26.42;19.23;;;22.40;99.90;;;;;;5057661;28;20036;-77
2022/08/19 08:51:32;;;;;;;27.08;19.88;;;22.50;99.90;;;;;;5056427;28;20084;-79
2022/08/19 08:53:59;;;;;;;24.17;18.73;;;22.50;99.90;;;;;;5058789;28;20025;-78
2022/08/19 08:56:25;;;;;;;25.65;19.38;;;22.50;99.90;;;;;;5040117;28;20068;-74
2022/08/19 08:59:08;;;;;;;28.15;19.10;;;22.50;99.90;;;;;;5054091;28;20339;-76
2022/08/19 09:01:34;;;;;;;26.85;18.77;;;22.50;99.90;;;;;;5016713;28;20042;-78
2022/08/19 09:04:00;;;;;;;28.80;20.42;;;22.50;99.90;;;;;;5020346;28;20018;-78
2022/08/19 09:06:48;;;;;;;29.10;20.87;;;22.50;99.90;;;;;;5018068;28;20041;-75
2022/08/19 09:09:49;;;;;;;;;;;22.40;99.90;;;;;;5003631;28;20037;-75
2022/08/19 09:12:38;;;;;;;25.92;20.58;;;22.40;99.90;;;;;;5004164;28;19912;-73
2022/08/19 09:15:07;;;;;;;31.52;22.83;;;22.30;99.90;;;;;;4997260;28;20069;-72
2022/08/19 09:17:34;;;;;;;31.15;22.92;;;22.30;99.90;;;;;;5005623;28;20029;-72
2022/08/19 09:20:08;;;;;;;31.42;23.35;;;22.30;99.90;;;;;;5022298;28;20030;-73
2022/08/19 09:22:35;;;;;;;30.25;22.27;;;22.30;99.90;;;;;;4989716;28;20100;-75
2022/08/19 09:25:01;;;;;;;31.52;21.70;;;22.20;99.90;;;;;;5000802;28;20384;-75
2022/08/19 09:27:28;;;;;;;27.40;20.95;;;22.20;99.90;;;;;;5002761;28;20052;-75
2022/08/19 09:29:54;;;;;;;30.25;22.02;;;22.10;99.90;;;;;;5003553;28;20042;-76
2022/08/19 09:32:20;;;;;;;27.98;20.27;;;22.20;99.90;;;;;;5001554;28;20033;-76
2022/08/19 09:34:46;;;;;;;27.40;20.83;;;22.20;99.90;;;;;;5001691;28;20033;-77
2022/08/19 09:37:12;;;;;;;28.80;20.47;;;22.10;99.90;;;;;;5002924;28;20042;-72
2022/08/19 09:39:40;;;;;;;26.13;20.55;;;22.10;99.90;;;;;;5002906;28;20041;-74
2022/08/19 09:42:11;;;;;;;26.80;20.27;;;22.10;99.90;;;;;;4999648;28;20076;-72
2022/08/19 09:44:40;;;;;;;26.67;20.50;;;22.10;99.90;;;;;;5001358;28;20347;-73
2022/08/19 09:47:07;;;;;;;26.23;20.13;;;22.10;99.90;;;;;;5001368;28;20033;-74
2022/08/19 09:49:33;;;;;;;25.85;18.85;;;22.10;99.90;;;;;;5000895;28;20077;-73
2022/08/19 09:51:59;;;;;;;25.58;19.35;;;22.10;99.90;;;;;;5003232;28;20042;-73
2022/08/19 09:54:24;;;;;;;26.30;19.53;;;22.10;99.90;;;;;;5006584;28;20026;-74
2022/08/19 09:56:50;;;;;;;27.40;20.07;;;22.10;99.90;;;;;;5004706;28;20026;-74
2022/08/19 09:59:16;;;;;;;27.03;19.97;;;22.10;99.90;;;;;;5005794;28;20030;-73
2022/08/19 10:01:42;;;;;;;24.80;19.33;;;22.10;99.90;;;;;;5004993;28;20274;-74
2022/08/19 10:04:08;;;;;;;27.00;20.43;;;22.10;99.90;;;;;;5005798;28;20038;-73
2022/08/19 10:06:34;;;;;;;28.95;20.17;;;22.10;99.90;;;;;;5007100;28;20045;-74
2022/08/19 10:09:00;;;;;;;27.13;19.65;;;22.10;99.90;;;;;;5005797;28;20102;-74
2022/08/19 10:11:26;;;;;;;29.70;19.93;;;22.20;99.90;;;;;;5003999;28;20037;-73
2022/08/19 10:13:52;;;;;;;27.13;18.93;;;22.20;99.90;;;;;;5020630;28;20233;-74
2022/08/19 10:16:22;;;;;;;27.30;18.40;;;22.20;99.90;;;;;;4986391;28;20111;-73
2022/08/19 10:18:50;;;;;;;24.73;18.52;;;22.20;99.90;;;;;;4986594;28;20034;-74
2022/08/19 10:21:22;;;;;;;25.08;19.13;;;22.20;99.90;;;;;;5001322;28;20018;-74
2022/08/19 10:23:50;;;;;;;24.67;17.75;;;22.20;99.90;;;;;;5017343;28;20034;-74
2022/08/19 10:26:19;;;;;;;25.67;19.13;;;22.20;99.90;;;;;;4984877;28;20019;-75
2022/08/19 10:28:45;;;;;;;23.50;17.55;;;22.20;99.90;;;;;;4987677;28;20030;-74
2022/08/19 10:31:14;;;;;;;24.47;18.13;;;22.20;99.90;;;;;;5019877;28;20026;-76
2022/08/19 10:33:40;;;;;;;20.42;17.27;;;22.20;99.90;;;;;;5004411;28;20129;-78
2022/08/19 10:36:18;;;;;;;22.33;16.40;;;22.20;99.90;;;;;;4988994;28;20026;-78
2022/08/19 10:38:49;;;;;;;25.65;17.13;;;22.20;99.90;;;;;;4985732;28;20030;-75
2022/08/19 10:41:22;;;;;;;21.00;17.17;;;22.20;99.90;;;;;;5025652;28;20026;-75
2022/08/19 10:43:47;;;;;;;22.52;17.42;;;22.20;99.90;;;;;;5021878;28;20025;-75
2022/08/19 10:46:15;;;;;;;23.20;17.27;;;22.30;99.90;;;;;;5022073;28;20030;-75
2022/08/19 10:48:42;;;;;;;28.52;18.25;;;22.30;99.90;;;;;;5022384;28;20375;-75
2022/08/19 10:53:53;;;;;;;21.45;16.73;;;22.40;99.90;;;;;;5017781;28;20030;-76
2022/08/19 10:59:03;;;;;;;22.35;16.17;;;22.40;99.90;;;;;;5004526;28;20049;-75
2022/08/19 11:01:31;;;;;;;25.98;17.00;;;22.40;99.90;;;;;;5004093;28;20092;-74
2022/08/19 11:03:59;;;;;;;22.67;17.35;;;22.40;99.90;;;;;;5002778;28;20026;-74
2022/08/19 11:06:25;;;;;;;20.70;16.27;;;22.50;99.90;;;;;;5005083;28;20014;-72
2022/08/19 11:08:54;;;;;;;470.03;136.27;;;22.50;99.90;;;;;;5005310;28;20352;-74
2022/08/19 11:11:21;;;;;;;99.20;40.85;;;22.50;99.90;;;;;;4988351;28;20077;-76
2022/08/19 11:13:47;;;;;;;25.10;19.02;;;22.50;99.90;;;;;;5019762;28;20138;-76
2022/08/19 11:16:18;;;;;;;22.63;17.05;;;22.60;99.90;;;;;;5005554;28;20464;-74
2022/08/19 11:18:48;;;;;;;20.45;16.35;;;22.60;99.90;;;;;;5019586;28;20030;-73
2022/08/19 11:21:21;;;;;;;21.55;15.95;;;22.60;99.90;;;;;;5020208;28;20026;-72
2022/08/19 11:23:49;;;;;;;20.15;16.45;;;22.60;99.90;;;;;;5019980;28;20064;-73
2022/08/19 11:26:15;;;;;;;20.98;16.08;;;22.60;99.90;;;;;;5020484;28;20089;-74
2022/08/19 11:28:41;;;;;;;23.65;17.13;;;22.60;99.90;;;;;;5020068;28;20037;-75
2022/08/19 11:31:18;;;;;;;21.27;15.95;;;22.60;99.90;;;;;;5003662;28;20030;-75
2022/08/19 11:33:45;;;;;;;19.23;15.48;;;22.60;99.90;;;;;;5003645;28;20026;-75
2022/08/19 11:36:12;;;;;;;22.40;17.17;;;22.60;99.90;;;;;;4988120;28;20022;-76
2022/08/19 11:38:38;;;;;;;21.02;16.83;;;22.60;99.90;;;;;;5004301;28;20265;-76
2022/08/19 11:41:07;;;;;;;22.08;17.98;;;22.50;99.90;;;;;;5003486;28;20026;-77
2022/08/19 11:43:33;;;;;;;21.60;16.75;;;22.50;99.90;;;;;;5000392;28;20026;-76
2022/08/19 11:45:59;;;;;;;;;;;22.50;99.90;;;;;;4986655;28;20035;-74
2022/08/19 11:48:25;;;;;;;22.48;16.75;;;22.50;99.90;;;;;;4985605;28;19953;-75
2022/08/19 11:50:52;;;;;;;19.00;15.38;;;22.50;99.90;;;;;;5001320;28;20025;-74
2022/08/19 11:53:19;;;;;;;20.85;16.27;;;22.40;99.90;;;;;;4986249;28;20035;-73
2022/08/19 11:55:48;;;;;;;21.50;17.35;;;22.40;99.90;;;;;;4986096;28;20089;-75
2022/08/19 11:58:15;;;;;;;21.55;17.58;;;22.40;99.90;;;;;;4983683;28;20039;-75
2022/08/19 12:00:41;;;;;;;;;;;22.40;99.90;;;;;;4988956;28;20062;-75
2022/08/19 12:03:07;;;;;;;20.40;16.35;;;22.40;99.90;;;;;;4999392;28;19910;-75
2022/08/19 12:05:33;;;;;;;21.95;17.15;;;22.40;99.90;;;;;;5015861;28;20027;-75
2022/08/19 12:07:58;;;;;;;22.07;17.07;;;22.40;99.90;;;;;;4982597;28;20057;-76
2022/08/19 12:10:24;;;;;;;25.87;20.03;;;22.40;99.90;;;;;;4999897;28;20033;-75
2022/08/19 12:12:50;;;;;;;29.20;20.40;;;22.30;99.90;;;;;;5031896;28;20034;-75
2022/08/19 12:15:16;;;;;;;26.00;19.47;;;22.30;99.90;;;;;;5019127;28;20022;-75
2022/08/19 12:17:42;;;;;;;26.33;20.13;;;22.30;99.90;;;;;;5004071;28;20026;-75
2022/08/19 12:20:10;;;;;;;28.67;21.08;;;22.20;99.90;;;;;;5018958;28;20215;-75
2022/08/19 12:22:40;;;;;;;29.92;20.08;;;22.10;99.90;;;;;;5019013;28;20221;-75
2022/08/19 12:25:09;;;;;;;27.58;20.85;;;22.00;99.90;;;;;;5003794;28;20045;-75
2022/08/19 12:27:35;;;;;;;26.33;21.35;;;21.90;99.90;;;;;;5018685;28;20073;-75
2022/08/19 12:30:03;;;;;;;31.45;22.52;;;21.70;99.90;;;;;;5002525;28;20023;-76
2022/08/19 12:32:29;;;;;;;24.73;20.38;;;21.70;99.90;;;;;;5018183;28;20034;-75
2022/08/19 12:34:55;;;;;;;28.50;21.75;;;21.70;99.90;;;;;;5018342;28;20030;-74
2022/08/19 12:37:21;;;;;;;27.45;20.45;;;21.60;99.90;;;;;;5003266;28;20041;-76
2022/08/19 12:39:46;;;;;;;30.13;21.80;;;21.60;99.90;;;;;;5002166;28;20030;-74
2022/08/19 12:42:13;;;;;;;27.65;21.92;;;21.60;99.90;;;;;;4984160;28;20018;-74
2022/08/19 12:44:40;;;;;;;26.35;22.08;;;21.70;99.90;;;;;;5001716;28;20045;-74
2022/08/19 12:47:06;;;;;;;31.35;23.08;;;21.70;99.90;;;;;;5002237;28;20025;-73
2022/08/19 12:49:33;;;;;;;29.75;23.27;;;21.70;99.90;;;;;;5003421;28;20030;-74
2022/08/19 12:52:00;;;;;;;31.15;24.23;;;21.70;99.90;;;;;;5002177;28;20038;-74
2022/08/19 12:54:27;;;;;;;28.40;23.20;;;21.70;99.90;;;;;;5001856;28;20085;-74